Terminal Aerodrome Forecast
Issued by NWS Albany, NY

Home | Current Version | Previous Version | Text Only | Print | Product List | Glossary On
Versions: 1 2 3 4 5 6 7 8 9 10 11 12 13 14 15 16 17 18 19 20
727
FTUS41 KALY 191135
TAFPOU
TAF
KPOU 191135Z 1912/2012 12004KT P6SM VCSH SCT035 OVC070
      TEMPO 1912/1914 5SM -RASN BR OVC035
     FM191400 32006KT P6SM VCSH OVC035
      TEMPO 1917/1920 5SM -RASN BR OVC030
     FM192200 30010KT P6SM VCSH OVC070=

USA.gov is the U.S. government's official web portal to all federal, state and local government web resources and services.